createdAt,value
2019-05-19T00:00:51.626Z,4.50
2019-05-19T00:03:20.040Z,5.57
2019-05-19T00:05:48.443Z,5.30
2019-05-19T00:08:16.860Z,5.37
2019-05-19T00:10:45.308Z,5.37
2019-05-19T00:13:13.722Z,4.93
2019-05-19T00:15:42.131Z,5.77
2019-05-19T00:18:10.522Z,5.87
2019-05-19T00:20:39.102Z,5.73
2019-05-19T00:23:07.605Z,5.17
2019-05-19T00:25:36.020Z,5.93
2019-05-19T00:28:04.687Z,5.40
2019-05-19T00:30:33.087Z,5.40
2019-05-19T00:33:01.478Z,5.47
2019-05-19T00:35:29.964Z,5.60
2019-05-19T00:37:58.402Z,5.60
2019-05-19T00:40:26.834Z,5.67
2019-05-19T00:42:55.256Z,5.37
2019-05-19T00:45:23.831Z,7.53
2019-05-19T00:47:52.342Z,4.90
2019-05-19T00:50:20.778Z,4.70
2019-05-19T00:52:49.187Z,4.87
2019-05-19T00:55:17.690Z,4.67
2019-05-19T00:57:47.455Z,4.83
2019-05-19T01:00:16.279Z,4.80
2019-05-19T01:02:44.685Z,4.93
2019-05-19T01:05:13.276Z,5.13
2019-05-19T01:07:41.752Z,4.93
2019-05-19T01:10:10.782Z,5.27
2019-05-19T01:12:39.188Z,5.20
2019-05-19T01:15:08.634Z,5.50
2019-05-19T01:17:37.122Z,6.07
2019-05-19T01:20:07.500Z,5.40
2019-05-19T01:22:35.899Z,6.03
2019-05-19T01:25:06.336Z,5.60
2019-05-19T01:27:34.742Z,5.90
2019-05-19T01:30:08.078Z,6.37
2019-05-19T01:32:36.498Z,6.43
2019-05-19T01:35:05.528Z,6.63
2019-05-19T01:37:33.967Z,6.40
2019-05-19T01:40:02.609Z,6.13
2019-05-19T01:42:31.254Z,7.00
2019-05-19T01:44:59.699Z,6.87
2019-05-19T01:47:28.250Z,6.50
2019-05-19T01:50:16.468Z,6.77
2019-05-19T01:52:46.199Z,7.53
2019-05-19T01:55:14.886Z,6.60
2019-05-19T01:57:43.273Z,6.73
2019-05-19T02:00:31.446Z,6.93
2019-05-19T02:02:59.835Z,6.97
2019-05-19T02:05:28.306Z,7.60
2019-05-19T02:07:56.896Z,6.47
2019-05-19T02:10:25.503Z,6.37
2019-05-19T02:12:53.894Z,8.20
2019-05-19T02:15:22.515Z,6.20
2019-05-19T02:17:50.915Z,6.70
2019-05-19T02:20:31.988Z,7.33
2019-05-19T02:22:49.550Z,7.93
2019-05-19T02:25:18.576Z,8.63
2019-05-19T02:27:47.039Z,9.37
2019-05-19T02:30:17.295Z,10.53
2019-05-19T02:32:45.687Z,8.60
2019-05-19T02:35:14.342Z,9.13
2019-05-19T02:37:42.730Z,8.30
2019-05-19T02:40:11.578Z,8.17
2019-05-19T02:42:42.514Z,8.60
2019-05-19T02:45:11.564Z,8.60
2019-05-19T02:47:42.580Z,9.73
2019-05-19T02:50:12.502Z,10.10
2019-05-19T02:52:42.059Z,13.30
2019-05-19T02:55:10.608Z,12.67
2019-05-19T02:57:41.335Z,10.90
2019-05-19T03:00:10.264Z,9.50
2019-05-19T03:02:39.233Z,10.03
2019-05-19T03:05:07.776Z,8.90
2019-05-19T03:07:36.249Z,10.73
2019-05-19T03:10:06.337Z,10.13
2019-05-19T03:12:34.811Z,12.03
2019-05-19T03:15:03.864Z,9.83
2019-05-19T03:17:32.298Z,9.83
2019-05-19T03:20:00.707Z,12.97
2019-05-19T03:22:29.124Z,12.77
2019-05-19T03:24:57.520Z,12.50
2019-05-19T03:27:25.924Z,11.67
2019-05-19T03:29:56.108Z,10.80
2019-05-19T03:32:29.317Z,10.57
2019-05-19T03:34:57.688Z,11.30
2019-05-19T03:37:26.168Z,12.13
2019-05-19T03:39:54.585Z,10.87
2019-05-19T03:42:23.050Z,11.10
2019-05-19T03:44:51.444Z,11.60
2019-05-19T03:47:20.016Z,11.23
2019-05-19T03:49:48.427Z,12.43
2019-05-19T03:52:16.834Z,11.10
2019-05-19T03:54:45.242Z,9.97
2019-05-19T03:57:13.796Z,12.90
2019-05-19T03:59:42.202Z,13.20
2019-05-19T04:02:10.624Z,15.87
2019-05-19T04:04:39.039Z,14.47
2019-05-19T04:07:07.528Z,14.20
2019-05-19T04:09:36.093Z,14.43
2019-05-19T04:12:04.492Z,18.73
2019-05-19T04:14:32.896Z,15.10
2019-05-19T04:17:01.318Z,15.17
2019-05-19T04:19:29.714Z,14.50
2019-05-19T04:21:58.128Z,13.90
2019-05-19T04:24:26.638Z,15.70
2019-05-19T04:26:55.056Z,12.83
2019-05-19T04:29:23.462Z,13.73
2019-05-19T04:31:51.879Z,14.27
2019-05-19T04:34:20.370Z,11.60
2019-05-19T04:36:48.767Z,11.17
2019-05-19T04:39:17.496Z,10.67
2019-05-19T04:41:45.906Z,12.20
2019-05-19T04:44:14.294Z,9.90
2019-05-19T04:46:42.716Z,9.70
2019-05-19T04:49:11.121Z,10.50
2019-05-19T04:51:39.542Z,9.63
2019-05-19T04:54:08.030Z,10.83
2019-05-19T04:56:36.439Z,9.03
2019-05-19T04:59:04.921Z,12.17
2019-05-19T05:01:33.349Z,10.87
2019-05-19T05:04:01.751Z,11.43
2019-05-19T05:06:30.304Z,11.07
2019-05-19T05:08:58.713Z,11.63
2019-05-19T05:11:27.255Z,10.10
2019-05-19T05:13:55.654Z,11.90
2019-05-19T05:16:24.074Z,11.00
2019-05-19T05:18:52.610Z,11.83
2019-05-19T05:21:21.067Z,10.50
2019-05-19T05:23:49.474Z,13.03
2019-05-19T05:26:17.897Z,13.07
2019-05-19T05:28:46.306Z,10.80
2019-05-19T05:31:15.621Z,13.57
2019-05-19T05:33:44.170Z,14.10
2019-05-19T05:36:12.899Z,16.23
2019-05-19T05:38:41.338Z,15.47
2019-05-19T05:41:09.932Z,16.47
2019-05-19T05:43:38.352Z,15.70
2019-05-19T05:46:06.751Z,19.57
2019-05-19T05:48:35.170Z,17.30
2019-05-19T05:51:03.570Z,17.37
2019-05-19T05:53:31.985Z,16.47
2019-05-19T05:56:00.382Z,15.87
2019-05-19T05:58:28.839Z,17.33
2019-05-19T06:00:57.277Z,16.57
2019-05-19T06:03:25.687Z,17.20
2019-05-19T06:05:54.092Z,15.47
2019-05-19T06:08:22.598Z,17.50
2019-05-19T06:10:51.003Z,18.20
2019-05-19T06:13:19.404Z,13.90
2019-05-19T06:15:47.915Z,14.87
2019-05-19T06:18:16.391Z,16.70
2019-05-19T06:20:44.782Z,15.63
2019-05-19T06:23:13.200Z,15.23
2019-05-19T06:25:41.972Z,15.77
2019-05-19T06:28:10.433Z,15.00
2019-05-19T06:30:38.865Z,15.90
2019-05-19T06:33:07.262Z,15.33
2019-05-19T06:35:35.675Z,16.30
2019-05-19T06:38:04.168Z,14.90
2019-05-19T06:40:33.171Z,14.37
2019-05-19T06:43:01.590Z,15.97
2019-05-19T06:45:30.104Z,14.90
2019-05-19T06:47:58.715Z,14.40
2019-05-19T06:50:27.179Z,12.87
2019-05-19T06:53:12.378Z,12.57
2019-05-19T06:55:25.937Z,12.63
2019-05-19T06:57:54.387Z,11.10
2019-05-19T07:00:23.237Z,14.63
2019-05-19T07:02:51.631Z,12.83
2019-05-19T07:05:20.061Z,11.90
2019-05-19T07:07:48.451Z,10.30
2019-05-19T07:10:17.063Z,10.97
2019-05-19T07:12:45.602Z,10.00
2019-05-19T07:15:14.320Z,11.23
2019-05-19T07:17:42.937Z,10.47
2019-05-19T07:20:11.609Z,9.57
2019-05-19T07:22:40.051Z,9.70
2019-05-19T07:25:09.189Z,10.07
2019-05-19T07:27:37.856Z,9.30
2019-05-19T07:30:07.572Z,9.23
2019-05-19T07:32:35.988Z,9.17
2019-05-19T07:35:06.027Z,8.37
2019-05-19T07:37:34.427Z,8.53
2019-05-19T07:40:03.353Z,8.93
2019-05-19T07:42:31.804Z,9.37
2019-05-19T07:45:00.438Z,8.97
2019-05-19T07:47:28.856Z,9.60
2019-05-19T07:49:57.262Z,8.73
2019-05-19T07:52:25.972Z,9.70
2019-05-19T07:54:54.444Z,8.50
2019-05-19T07:57:23.032Z,8.70
2019-05-19T07:59:51.539Z,7.63
2019-05-19T08:02:19.953Z,6.83
2019-05-19T08:04:48.355Z,7.40
2019-05-19T08:07:16.776Z,6.93
2019-05-19T08:09:45.345Z,6.50
2019-05-19T08:12:13.829Z,7.40
2019-05-19T08:14:42.218Z,7.00
2019-05-19T08:17:10.620Z,7.10
2019-05-19T08:19:39.037Z,6.40
2019-05-19T08:22:07.434Z,5.30
2019-05-19T08:24:36.152Z,6.40
2019-05-19T08:27:04.688Z,6.10
2019-05-19T08:29:33.305Z,6.33
2019-05-19T08:32:01.878Z,6.20
2019-05-19T08:34:30.332Z,6.83
2019-05-19T08:36:58.908Z,6.77
2019-05-19T08:39:27.384Z,6.10
2019-05-19T08:41:55.786Z,6.57
2019-05-19T08:44:24.257Z,5.87
2019-05-19T08:46:52.667Z,7.40
2019-05-19T08:49:21.074Z,6.90
2019-05-19T08:51:49.586Z,5.10
2019-05-19T08:54:19.007Z,6.10
2019-05-19T08:56:47.752Z,6.27
2019-05-19T08:59:16.174Z,5.87
2019-05-19T09:01:44.554Z,4.57
2019-05-19T09:04:12.966Z,5.77
2019-05-19T09:06:41.444Z,5.40
2019-05-19T09:09:09.860Z,4.57
2019-05-19T09:11:38.307Z,4.27
2019-05-19T09:14:06.939Z,4.03
2019-05-19T09:16:35.455Z,4.63
2019-05-19T09:19:03.886Z,4.57
2019-05-19T09:21:32.397Z,6.07
2019-05-19T09:24:01.094Z,4.70
2019-05-19T09:26:29.570Z,4.10
2019-05-19T09:28:59.012Z,4.43
2019-05-19T09:31:27.420Z,4.23
2019-05-19T09:33:55.816Z,4.33
2019-05-19T09:36:24.386Z,4.33
2019-05-19T09:38:52.786Z,4.30
2019-05-19T09:41:21.174Z,4.13
2019-05-19T09:43:49.666Z,4.17
2019-05-19T09:46:18.127Z,4.63
2019-05-19T09:48:47.724Z,4.30
2019-05-19T09:51:16.137Z,4.30
2019-05-19T09:53:44.535Z,4.63
2019-05-19T09:56:12.963Z,4.53
2019-05-19T09:58:41.359Z,4.20
2019-05-19T10:01:09.789Z,4.33
2019-05-19T10:03:38.182Z,4.33
2019-05-19T10:06:06.757Z,5.03
2019-05-19T10:08:36.348Z,4.37
2019-05-19T10:11:09.658Z,4.60
2019-05-19T10:13:38.233Z,4.77
2019-05-19T10:16:06.746Z,4.30
2019-05-19T10:18:35.139Z,4.00
2019-05-19T10:21:03.613Z,3.90
2019-05-19T10:23:32.474Z,3.20
2019-05-19T10:26:00.938Z,3.83
2019-05-19T10:28:29.547Z,4.23
2019-05-19T10:30:57.936Z,3.83
2019-05-19T10:33:26.330Z,4.13
2019-05-19T10:35:55.640Z,4.80
2019-05-19T10:38:24.042Z,4.43
2019-05-19T10:40:52.452Z,3.97
2019-05-19T10:43:21.170Z,3.63
2019-05-19T10:45:51.203Z,3.97
2019-05-19T10:48:19.625Z,4.30
2019-05-19T10:50:48.032Z,4.20
2019-05-19T10:53:16.424Z,3.90
2019-05-19T10:55:44.841Z,3.57
2019-05-19T10:58:13.462Z,3.17
2019-05-19T11:00:42.056Z,3.17
2019-05-19T11:03:10.534Z,3.60
2019-05-19T11:05:38.936Z,3.23
2019-05-19T11:08:07.359Z,3.33
2019-05-19T11:10:35.819Z,3.30
2019-05-19T11:13:04.300Z,2.93
2019-05-19T11:15:32.926Z,3.57
2019-05-19T11:18:01.444Z,3.70
2019-05-19T11:20:30.116Z,3.03
2019-05-19T11:22:59.452Z,3.90
2019-05-19T11:25:33.870Z,7.03
2019-05-19T11:27:58.007Z,3.50
2019-05-19T11:30:26.391Z,3.70
2019-05-19T11:32:55.028Z,2.73
2019-05-19T11:35:28.354Z,3.83
2019-05-19T11:37:56.987Z,2.73
2019-05-19T11:40:25.390Z,2.90
2019-05-19T11:42:53.798Z,2.97
2019-05-19T11:45:22.378Z,4.10
2019-05-19T11:47:50.788Z,2.90
2019-05-19T11:50:19.278Z,3.23
2019-05-19T11:52:47.695Z,2.93
2019-05-19T11:55:16.242Z,3.00
2019-05-19T11:57:44.670Z,2.80
2019-05-19T12:00:13.403Z,3.20
2019-05-19T12:02:41.795Z,2.70
2019-05-19T12:05:10.336Z,3.13
2019-05-19T12:07:38.732Z,2.77
2019-05-19T12:10:07.483Z,2.63
2019-05-19T12:12:35.891Z,3.20
2019-05-19T12:15:06.048Z,3.27
2019-05-19T12:17:34.560Z,2.93
2019-05-19T12:20:03.161Z,2.70
2019-05-19T12:22:31.608Z,2.67
2019-05-19T12:25:00.011Z,4.00
2019-05-19T12:27:28.457Z,5.70
2019-05-19T12:29:56.898Z,3.30
2019-05-19T12:32:25.592Z,6.93
2019-05-19T12:34:54.081Z,5.90
2019-05-19T12:37:22.494Z,8.10
2019-05-19T12:39:50.893Z,2.30
2019-05-19T12:42:19.308Z,3.17
2019-05-19T12:44:47.969Z,7.17
2019-05-19T12:47:16.423Z,8.60
2019-05-19T12:49:45.018Z,9.97
2019-05-19T12:52:13.491Z,18.60
2019-05-19T12:54:41.947Z,9.27
2019-05-19T12:57:10.422Z,3.00
2019-05-19T12:59:38.897Z,3.70
2019-05-19T13:02:07.524Z,6.10
2019-05-19T13:04:36.106Z,3.63
2019-05-19T13:07:04.596Z,3.73
2019-05-19T13:09:33.107Z,2.97
2019-05-19T13:12:01.573Z,2.93
2019-05-19T13:14:30.070Z,3.20
2019-05-19T13:16:58.507Z,3.03
2019-05-19T13:19:26.917Z,3.50
2019-05-19T13:21:55.376Z,3.53
2019-05-19T13:24:23.827Z,3.63
2019-05-19T13:26:56.399Z,3.00
2019-05-19T13:29:22.682Z,3.33
2019-05-19T13:31:51.245Z,2.73
2019-05-19T13:34:19.671Z,3.00
2019-05-19T13:36:48.163Z,3.10
2019-05-19T13:39:16.614Z,2.90
2019-05-19T13:41:45.112Z,3.23
2019-05-19T13:44:13.520Z,2.80
2019-05-19T13:46:41.950Z,2.67
2019-05-19T13:49:10.603Z,2.67
2019-05-19T13:51:39.166Z,2.97
2019-05-19T13:54:07.631Z,3.47
2019-05-19T13:56:36.286Z,5.17
2019-05-19T13:59:04.661Z,2.90
2019-05-19T14:01:33.245Z,3.40
2019-05-19T14:04:01.738Z,3.50
2019-05-19T14:06:30.219Z,2.87
2019-05-19T14:08:58.682Z,2.90
2019-05-19T14:11:27.119Z,3.07
2019-05-19T14:13:55.548Z,2.70
2019-05-19T14:16:24.024Z,3.30
2019-05-19T14:18:52.433Z,2.90
2019-05-19T14:21:20.874Z,3.37
2019-05-19T14:23:49.287Z,2.80
2019-05-19T14:26:17.682Z,3.10
2019-05-19T14:28:46.088Z,3.03
2019-05-19T14:31:14.741Z,2.90
2019-05-19T14:33:43.415Z,3.17
2019-05-19T14:36:11.814Z,2.80
2019-05-19T14:38:41.897Z,2.30
2019-05-19T14:41:10.286Z,4.23
2019-05-19T14:43:38.686Z,3.63
2019-05-19T14:46:07.100Z,3.83
2019-05-19T14:48:35.498Z,3.07
2019-05-19T14:51:03.971Z,3.00
2019-05-19T14:53:32.373Z,2.90
2019-05-19T14:56:00.779Z,2.90
2019-05-19T14:58:29.177Z,2.90
2019-05-19T15:00:57.611Z,2.73
2019-05-19T15:03:26.151Z,2.53
2019-05-19T15:05:54.627Z,2.93
2019-05-19T15:08:23.324Z,2.13
2019-05-19T15:10:51.743Z,2.57
2019-05-19T15:13:20.159Z,3.10
2019-05-19T15:15:48.624Z,2.67
2019-05-19T15:18:17.190Z,2.57
2019-05-19T15:20:45.681Z,2.23
2019-05-19T15:23:14.136Z,2.58
2019-05-19T15:25:42.648Z,2.70
2019-05-19T15:28:13.011Z,2.90
2019-05-19T15:30:41.507Z,3.00
2019-05-19T15:33:09.930Z,3.57
2019-05-19T15:35:38.326Z,2.50
2019-05-19T15:38:06.739Z,2.77
2019-05-19T15:40:35.146Z,2.50
2019-05-19T15:43:03.562Z,3.50
2019-05-19T15:45:31.974Z,3.33
2019-05-19T15:48:00.371Z,2.47
2019-05-19T15:50:28.879Z,2.60
2019-05-19T15:52:57.380Z,2.77
2019-05-19T15:55:25.826Z,2.40
2019-05-19T15:57:54.239Z,2.83
2019-05-19T16:00:22.884Z,2.60
2019-05-19T16:02:51.295Z,2.50
2019-05-19T16:05:19.698Z,2.33
2019-05-19T16:07:48.665Z,2.33
2019-05-19T16:10:17.251Z,2.33
2019-05-19T16:12:45.716Z,2.30
2019-05-19T16:15:15.793Z,2.67
2019-05-19T16:17:44.220Z,2.37
2019-05-19T16:20:13.726Z,2.42
2019-05-19T16:22:42.127Z,2.60
2019-05-19T16:25:11.459Z,3.80
2019-05-19T16:27:39.866Z,2.55
2019-05-19T16:30:09.104Z,2.27
2019-05-19T16:32:37.678Z,3.17
2019-05-19T16:35:07.983Z,2.27
2019-05-19T16:37:36.427Z,2.70
2019-05-19T16:40:06.426Z,4.10
2019-05-19T16:42:34.840Z,2.67
2019-05-19T16:45:04.011Z,3.10
2019-05-19T16:47:32.534Z,4.40
2019-05-19T16:50:00.926Z,2.97
2019-05-19T16:52:29.335Z,3.50
2019-05-19T16:55:16.946Z,2.93
2019-05-19T16:57:45.527Z,3.07
2019-05-19T17:00:14.271Z,3.50
2019-05-19T17:02:42.675Z,3.07
2019-05-19T17:05:11.264Z,3.40
2019-05-19T17:07:39.783Z,3.63
2019-05-19T17:10:09.685Z,3.40
2019-05-19T17:12:38.102Z,3.30
2019-05-19T17:15:06.892Z,3.30
2019-05-19T17:17:35.427Z,4.13
2019-05-19T17:20:08.764Z,3.63
2019-05-19T17:22:37.167Z,3.17
2019-05-19T17:25:06.934Z,3.43
2019-05-19T17:27:35.395Z,4.00
2019-05-19T17:30:08.615Z,3.10
2019-05-19T17:32:37.120Z,3.47
2019-05-19T17:35:07.191Z,3.73
2019-05-19T17:37:35.911Z,3.70
2019-05-19T17:40:05.438Z,2.90
2019-05-19T17:42:37.066Z,3.13
2019-05-19T17:45:06.023Z,4.00
2019-05-19T17:47:34.547Z,3.50
2019-05-19T17:50:03.059Z,3.80
2019-05-19T17:52:31.521Z,3.50
2019-05-19T17:55:00.056Z,3.67
2019-05-19T17:57:28.791Z,3.60
2019-05-19T17:59:58.047Z,3.93
2019-05-19T18:02:26.569Z,4.03
2019-05-19T18:04:54.978Z,3.73
2019-05-19T18:07:23.475Z,3.93
2019-05-19T18:09:51.994Z,3.87
2019-05-19T18:12:20.387Z,3.80
2019-05-19T18:14:48.863Z,3.97
2019-05-19T18:17:17.443Z,3.60
2019-05-19T18:19:45.830Z,4.57
2019-05-19T18:22:14.242Z,3.93
2019-05-19T18:24:42.640Z,4.43
2019-05-19T18:27:11.050Z,5.13
2019-05-19T18:29:39.472Z,4.33
2019-05-19T18:32:08.368Z,4.37
2019-05-19T18:34:36.753Z,4.20
2019-05-19T18:37:05.229Z,5.07
2019-05-19T18:39:33.652Z,4.27
2019-05-19T18:42:02.290Z,4.47
2019-05-19T18:44:30.701Z,4.60
2019-05-19T18:46:59.313Z,4.03
2019-05-19T18:49:27.753Z,4.27
2019-05-19T18:51:56.195Z,4.00
2019-05-19T18:54:24.585Z,3.77
2019-05-19T18:56:52.991Z,3.87
2019-05-19T18:59:21.390Z,3.50
2019-05-19T19:01:49.922Z,4.00
2019-05-19T19:04:18.330Z,6.10
2019-05-19T19:06:46.726Z,4.80
2019-05-19T19:09:15.147Z,4.90
2019-05-19T19:11:43.542Z,4.27
2019-05-19T19:14:11.985Z,4.43
2019-05-19T19:16:40.489Z,4.23
2019-05-19T19:19:08.928Z,3.70
2019-05-19T19:21:37.319Z,3.57
2019-05-19T19:24:05.791Z,3.87
2019-05-19T19:26:34.207Z,3.47
2019-05-19T19:29:02.815Z,3.90
2019-05-19T19:31:31.270Z,3.63
2019-05-19T19:33:59.683Z,4.33
2019-05-19T19:36:28.146Z,5.03
2019-05-19T19:38:56.561Z,4.67
2019-05-19T19:41:24.974Z,3.90
2019-05-19T19:43:53.378Z,3.87
2019-05-19T19:46:21.789Z,4.43
2019-05-19T19:48:50.194Z,4.10
2019-05-19T19:51:18.599Z,4.60
2019-05-19T19:53:47.106Z,4.17
2019-05-19T19:56:15.515Z,3.80
2019-05-19T19:58:43.922Z,4.20
2019-05-19T20:01:12.442Z,3.67
2019-05-19T20:03:41.367Z,4.47
2019-05-19T20:06:09.861Z,3.87
2019-05-19T20:08:38.404Z,3.33
2019-05-19T20:11:06.809Z,3.47
2019-05-19T20:13:35.506Z,4.33
2019-05-19T20:16:03.903Z,3.97
2019-05-19T20:18:33.839Z,3.53
2019-05-19T20:21:02.255Z,3.53
2019-05-19T20:23:32.153Z,3.70
2019-05-19T20:26:00.598Z,4.13
2019-05-19T20:28:29.016Z,3.50
2019-05-19T20:30:58.526Z,3.73
2019-05-19T20:33:26.926Z,3.73
2019-05-19T20:35:55.397Z,4.00
2019-05-19T20:38:23.846Z,4.03
2019-05-19T20:40:52.642Z,3.73
2019-05-19T20:43:21.187Z,4.07
2019-05-19T20:45:49.578Z,3.43
2019-05-19T20:48:18.065Z,3.83
2019-05-19T20:50:46.450Z,3.93
2019-05-19T20:53:14.856Z,4.07
2019-05-19T20:55:43.268Z,4.17
2019-05-19T20:58:11.686Z,3.93
2019-05-19T21:00:49.890Z,3.67
2019-05-19T21:03:10.206Z,3.77
2019-05-19T21:05:38.687Z,3.73
2019-05-19T21:08:07.112Z,3.93
2019-05-19T21:10:35.722Z,3.67
2019-05-19T21:13:04.186Z,3.50
2019-05-19T21:15:32.594Z,3.57
2019-05-19T21:18:01.253Z,3.47
2019-05-19T21:20:29.705Z,4.43
2019-05-19T21:22:58.211Z,3.60
2019-05-19T21:25:26.748Z,3.70
2019-05-19T21:27:55.218Z,4.07
2019-05-19T21:30:23.632Z,4.77
2019-05-19T21:32:52.094Z,5.50
2019-05-19T21:35:20.506Z,6.53
2019-05-19T21:37:48.920Z,4.77
2019-05-19T21:40:17.563Z,5.57
2019-05-19T21:42:45.978Z,4.60
2019-05-19T21:45:14.431Z,5.17
2019-05-19T21:47:42.831Z,8.20
2019-05-19T21:50:11.380Z,4.33
2019-05-19T21:52:39.783Z,4.47
2019-05-19T21:55:08.616Z,4.10
2019-05-19T21:57:37.363Z,4.37
2019-05-19T22:00:13.698Z,4.10
2019-05-19T22:02:45.687Z,4.10
2019-05-19T22:05:14.974Z,4.50
2019-05-19T22:07:57.538Z,5.50
2019-05-19T22:10:26.007Z,4.53
2019-05-19T22:12:54.463Z,5.30
2019-05-19T22:15:22.958Z,4.90
2019-05-19T22:17:52.278Z,6.57
2019-05-19T22:20:20.976Z,4.83
2019-05-19T22:22:49.497Z,4.87
2019-05-19T22:25:17.939Z,6.60
2019-05-19T22:27:46.335Z,4.30
2019-05-19T22:30:15.109Z,4.60
2019-05-19T22:32:43.544Z,4.30
2019-05-19T22:35:13.554Z,4.50
2019-05-19T22:37:42.087Z,4.07
2019-05-19T22:40:10.973Z,4.40
2019-05-19T22:42:39.426Z,3.83
2019-05-19T22:45:08.266Z,4.20
2019-05-19T22:47:36.731Z,3.10
2019-05-19T22:50:07.263Z,2.20
2019-05-19T22:52:35.658Z,2.13
2019-05-19T22:55:06.449Z,2.30
2019-05-19T22:57:34.850Z,4.13
2019-05-19T23:00:03.600Z,2.33
2019-05-19T23:02:32.009Z,2.53
2019-05-19T23:05:00.395Z,2.57
2019-05-19T23:07:28.910Z,1.77
2019-05-19T23:09:57.318Z,2.40
2019-05-19T23:12:25.710Z,1.40
2019-05-19T23:14:54.391Z,1.47
2019-05-19T23:17:22.788Z,1.53
2019-05-19T23:19:51.221Z,4.37
2019-05-19T23:22:19.679Z,1.10
2019-05-19T23:24:48.067Z,1.43
2019-05-19T23:27:16.479Z,1.17
2019-05-19T23:29:44.880Z,0.90
2019-05-19T23:32:13.335Z,1.10
2019-05-19T23:34:41.746Z,2.10
2019-05-19T23:37:10.152Z,1.00
2019-05-19T23:39:38.542Z,5.33
2019-05-19T23:42:06.942Z,0.67
2019-05-19T23:44:35.485Z,4.47
2019-05-19T23:47:04.036Z,0.63
2019-05-19T23:49:32.514Z,0.87
2019-05-19T23:52:01.066Z,2.37
2019-05-19T23:54:29.463Z,1.33
2019-05-19T23:56:57.892Z,2.10
2019-05-19T23:59:26.326Z,0.80
